sensor_id;sensor_type;location;lat;lon;timestamp;pressure;altitude;pressure_sealevel;temperature;humidity
48095;BME280;33874;52.070;-0.516;2023-04-15T00:01:14;100580.10;;;6.69;81.41
48095;BME280;33874;52.070;-0.516;2023-04-15T00:03:46;100579.10;;;6.66;81.48
48095;BME280;33874;52.070;-0.516;2023-04-15T00:06:14;100582.89;;;6.64;81.77
48095;BME280;33874;52.070;-0.516;2023-04-15T00:08:42;100584.71;;;6.63;81.70
48095;BME280;33874;52.070;-0.516;2023-04-15T00:11:12;100586.64;;;6.63;81.88
48095;BME280;33874;52.070;-0.516;2023-04-15T00:13:40;100590.55;;;6.64;82.22
48095;BME280;33874;52.070;-0.516;2023-04-15T00:16:08;100589.36;;;6.64;82.01
48095;BME280;33874;52.070;-0.516;2023-04-15T00:18:37;100589.12;;;6.65;81.98
48095;BME280;33874;52.070;-0.516;2023-04-15T00:21:05;100587.00;;;6.65;81.89
48095;BME280;33874;52.070;-0.516;2023-04-15T00:23:33;100588.10;;;6.65;81.93
48095;BME280;33874;52.070;-0.516;2023-04-15T00:26:03;100593.45;;;6.65;81.90
48095;BME280;33874;52.070;-0.516;2023-04-15T00:28:31;100597.41;;;6.66;81.85
48095;BME280;33874;52.070;-0.516;2023-04-15T00:31:00;100597.13;;;6.65;81.79
48095;BME280;33874;52.070;-0.516;2023-04-15T00:33:28;100601.16;;;6.65;81.94
48095;BME280;33874;52.070;-0.516;2023-04-15T00:35:56;100599.70;;;6.64;81.93
48095;BME280;33874;52.070;-0.516;2023-04-15T00:38:24;100599.66;;;6.64;81.83
48095;BME280;33874;52.070;-0.516;2023-04-15T00:40:52;100601.17;;;6.65;81.92
48095;BME280;33874;52.070;-0.516;2023-04-15T00:43:20;100602.25;;;6.65;81.64
48095;BME280;33874;52.070;-0.516;2023-04-15T00:45:49;100603.56;;;6.63;81.74
48095;BME280;33874;52.070;-0.516;2023-04-15T00:48:19;100610.45;;;6.62;81.53
48095;BME280;33874;52.070;-0.516;2023-04-15T00:50:47;100610.96;;;6.60;81.51
48095;BME280;33874;52.070;-0.516;2023-04-15T00:53:15;100615.38;;;6.57;81.73
48095;BME280;33874;52.070;-0.516;2023-04-15T00:55:42;100619.31;;;6.53;81.56
48095;BME280;33874;52.070;-0.516;2023-04-15T00:58:10;100625.28;;;6.50;81.67
48095;BME280;33874;52.070;-0.516;2023-04-15T01:00:38;100624.39;;;6.47;82.03
48095;BME280;33874;52.070;-0.516;2023-04-15T01:03:07;100628.97;;;6.47;82.04
48095;BME280;33874;52.070;-0.516;2023-04-15T01:05:36;100632.18;;;6.46;82.00
48095;BME280;33874;52.070;-0.516;2023-04-15T01:08:05;100633.05;;;6.43;82.03
48095;BME280;33874;52.070;-0.516;2023-04-15T01:10:33;100636.96;;;6.42;82.09
48095;BME280;33874;52.070;-0.516;2023-04-15T01:13:01;100636.81;;;6.40;82.17
48095;BME280;33874;52.070;-0.516;2023-04-15T01:15:30;100636.73;;;6.39;82.13
48095;BME280;33874;52.070;-0.516;2023-04-15T01:17:58;100640.45;;;6.38;82.17
48095;BME280;33874;52.070;-0.516;2023-04-15T01:20:26;100643.48;;;6.37;82.27
48095;BME280;33874;52.070;-0.516;2023-04-15T01:22:56;100645.09;;;6.36;82.24
48095;BME280;33874;52.070;-0.516;2023-04-15T01:25:30;100653.59;;;6.35;82.39
48095;BME280;33874;52.070;-0.516;2023-04-15T01:27:59;100660.13;;;6.33;82.65
48095;BME280;33874;52.070;-0.516;2023-04-15T01:30:28;100662.15;;;6.32;82.50
48095;BME280;33874;52.070;-0.516;2023-04-15T01:32:56;100667.98;;;6.31;82.59
48095;BME280;33874;52.070;-0.516;2023-04-15T01:35:24;100667.11;;;6.28;82.71
48095;BME280;33874;52.070;-0.516;2023-04-15T01:37:52;100674.88;;;6.27;82.77
48095;BME280;33874;52.070;-0.516;2023-04-15T01:40:21;100675.91;;;6.24;83.16
48095;BME280;33874;52.070;-0.516;2023-04-15T01:42:52;100684.39;;;6.23;82.87
48095;BME280;33874;52.070;-0.516;2023-04-15T01:45:20;100687.01;;;6.20;83.15
48095;BME280;33874;52.070;-0.516;2023-04-15T01:47:48;100690.05;;;6.19;83.18
48095;BME280;33874;52.070;-0.516;2023-04-15T01:50:17;100694.61;;;6.18;83.28
48095;BME280;33874;52.070;-0.516;2023-04-15T01:52:45;100696.61;;;6.18;83.42
48095;BME280;33874;52.070;-0.516;2023-04-15T01:55:14;100699.46;;;6.17;83.44
48095;BME280;33874;52.070;-0.516;2023-04-15T01:57:43;100700.39;;;6.16;83.57
48095;BME280;33874;52.070;-0.516;2023-04-15T02:00:12;100706.34;;;6.16;83.84
48095;BME280;33874;52.070;-0.516;2023-04-15T02:02:40;100714.67;;;6.16;83.90
48095;BME280;33874;52.070;-0.516;2023-04-15T02:05:08;100718.70;;;6.16;83.84
48095;BME280;33874;52.070;-0.516;2023-04-15T02:07:37;100719.48;;;6.17;83.99
48095;BME280;33874;52.070;-0.516;2023-04-15T02:10:05;100723.79;;;6.18;84.04
48095;BME280;33874;52.070;-0.516;2023-04-15T02:12:33;100722.97;;;6.20;84.28
48095;BME280;33874;52.070;-0.516;2023-04-15T02:15:01;100724.66;;;6.21;84.19
48095;BME280;33874;52.070;-0.516;2023-04-15T02:17:29;100727.47;;;6.21;84.02
48095;BME280;33874;52.070;-0.516;2023-04-15T02:19:57;100728.33;;;6.21;84.08
48095;BME280;33874;52.070;-0.516;2023-04-15T02:22:25;100733.39;;;6.21;84.44
48095;BME280;33874;52.070;-0.516;2023-04-15T02:24:54;100736.27;;;6.22;84.27
48095;BME280;33874;52.070;-0.516;2023-04-15T02:27:22;100735.02;;;6.22;84.35
48095;BME280;33874;52.070;-0.516;2023-04-15T02:29:50;100737.22;;;6.23;84.57
48095;BME280;33874;52.070;-0.516;2023-04-15T02:32:18;100737.86;;;6.24;84.45
48095;BME280;33874;52.070;-0.516;2023-04-15T02:34:46;100748.14;;;6.25;84.41
48095;BME280;33874;52.070;-0.516;2023-04-15T02:37:14;100751.78;;;6.25;84.49
48095;BME280;33874;52.070;-0.516;2023-04-15T02:39:42;100752.97;;;6.25;84.48
48095;BME280;33874;52.070;-0.516;2023-04-15T02:42:10;100761.66;;;6.26;84.55
48095;BME280;33874;52.070;-0.516;2023-04-15T02:44:40;100763.70;;;6.27;84.59
48095;BME280;33874;52.070;-0.516;2023-04-15T02:47:08;100769.63;;;6.27;84.70
48095;BME280;33874;52.070;-0.516;2023-04-15T02:49:38;100769.04;;;6.25;84.79
48095;BME280;33874;52.070;-0.516;2023-04-15T02:52:06;100771.58;;;6.24;84.68
48095;BME280;33874;52.070;-0.516;2023-04-15T02:54:34;100776.34;;;6.23;84.98
48095;BME280;33874;52.070;-0.516;2023-04-15T02:57:03;100775.16;;;6.22;84.94
48095;BME280;33874;52.070;-0.516;2023-04-15T02:59:33;100776.92;;;6.22;85.07
48095;BME280;33874;52.070;-0.516;2023-04-15T03:02:01;100776.59;;;6.22;85.05
48095;BME280;33874;52.070;-0.516;2023-04-15T03:04:29;100779.31;;;6.20;85.23
48095;BME280;33874;52.070;-0.516;2023-04-15T03:06:57;100783.36;;;6.20;85.29
48095;BME280;33874;52.070;-0.516;2023-04-15T03:09:25;100786.00;;;6.19;85.27
48095;BME280;33874;52.070;-0.516;2023-04-15T03:11:53;100791.38;;;6.18;85.33
48095;BME280;33874;52.070;-0.516;2023-04-15T03:14:21;100796.15;;;6.16;85.60
48095;BME280;33874;52.070;-0.516;2023-04-15T03:16:49;100798.33;;;6.15;85.79
48095;BME280;33874;52.070;-0.516;2023-04-15T03:19:18;100808.96;;;6.15;85.60
48095;BME280;33874;52.070;-0.516;2023-04-15T03:21:46;100812.03;;;6.14;85.67
48095;BME280;33874;52.070;-0.516;2023-04-15T03:24:15;100819.13;;;6.15;86.23
48095;BME280;33874;52.070;-0.516;2023-04-15T03:26:43;100816.73;;;6.14;86.14
48095;BME280;33874;52.070;-0.516;2023-04-15T03:29:11;100824.77;;;6.14;86.31
48095;BME280;33874;52.070;-0.516;2023-04-15T03:31:39;100828.28;;;6.14;86.14
48095;BME280;33874;52.070;-0.516;2023-04-15T03:34:07;100830.58;;;6.13;86.27
48095;BME280;33874;52.070;-0.516;2023-04-15T03:36:35;100834.92;;;6.14;86.24
48095;BME280;33874;52.070;-0.516;2023-04-15T03:39:04;100836.33;;;6.13;86.34
48095;BME280;33874;52.070;-0.516;2023-04-15T03:41:32;100843.36;;;6.12;86.41
48095;BME280;33874;52.070;-0.516;2023-04-15T03:44:00;100850.20;;;6.12;86.39
48095;BME280;33874;52.070;-0.516;2023-04-15T03:46:27;100853.52;;;6.12;86.37
48095;BME280;33874;52.070;-0.516;2023-04-15T03:48:55;100860.44;;;6.13;87.03
48095;BME280;33874;52.070;-0.516;2023-04-15T03:51:23;100860.20;;;6.14;86.84
48095;BME280;33874;52.070;-0.516;2023-04-15T03:53:51;100863.41;;;6.15;86.86
48095;BME280;33874;52.070;-0.516;2023-04-15T03:56:19;100864.07;;;6.16;86.77
48095;BME280;33874;52.070;-0.516;2023-04-15T03:58:47;100863.24;;;6.15;86.74
48095;BME280;33874;52.070;-0.516;2023-04-15T04:01:15;100867.16;;;6.14;86.82
48095;BME280;33874;52.070;-0.516;2023-04-15T04:03:43;100868.15;;;6.15;86.77
48095;BME280;33874;52.070;-0.516;2023-04-15T04:06:11;100871.42;;;6.15;86.78
48095;BME280;33874;52.070;-0.516;2023-04-15T04:08:39;100873.90;;;6.15;86.95
48095;BME280;33874;52.070;-0.516;2023-04-15T04:11:07;100877.56;;;6.15;86.71
48095;BME280;33874;52.070;-0.516;2023-04-15T04:13:35;100878.93;;;6.16;86.90
48095;BME280;33874;52.070;-0.516;2023-04-15T04:16:03;100879.59;;;6.16;86.99
48095;BME280;33874;52.070;-0.516;2023-04-15T04:18:32;100888.50;;;6.16;87.07
48095;BME280;33874;52.070;-0.516;2023-04-15T04:21:00;100890.27;;;6.16;86.88
48095;BME280;33874;52.070;-0.516;2023-04-15T04:23:28;100901.80;;;6.15;87.07
48095;BME280;33874;52.070;-0.516;2023-04-15T04:25:56;100903.63;;;6.14;87.21
48095;BME280;33874;52.070;-0.516;2023-04-15T04:28:24;100907.68;;;6.13;86.96
48095;BME280;33874;52.070;-0.516;2023-04-15T04:30:52;100913.67;;;6.13;86.98
48095;BME280;33874;52.070;-0.516;2023-04-15T04:33:20;100916.63;;;6.13;87.26
48095;BME280;33874;52.070;-0.516;2023-04-15T04:35:48;100921.52;;;6.12;87.16
48095;BME280;33874;52.070;-0.516;2023-04-15T04:38:16;100925.23;;;6.12;87.36
48095;BME280;33874;52.070;-0.516;2023-04-15T04:40:44;100930.98;;;6.12;87.29
48095;BME280;33874;52.070;-0.516;2023-04-15T04:43:11;100938.29;;;6.12;87.50
48095;BME280;33874;52.070;-0.516;2023-04-15T04:45:39;100942.09;;;6.13;87.39
48095;BME280;33874;52.070;-0.516;2023-04-15T04:48:07;100949.44;;;6.13;87.49
48095;BME280;33874;52.070;-0.516;2023-04-15T04:50:37;100952.87;;;6.14;87.33
48095;BME280;33874;52.070;-0.516;2023-04-15T04:53:06;100955.17;;;6.13;87.45
48095;BME280;33874;52.070;-0.516;2023-04-15T04:55:34;100954.65;;;6.13;87.32
48095;BME280;33874;52.070;-0.516;2023-04-15T04:58:03;100961.14;;;6.13;87.28
48095;BME280;33874;52.070;-0.516;2023-04-15T05:00:31;100965.16;;;6.12;87.38
48095;BME280;33874;52.070;-0.516;2023-04-15T05:02:59;100969.02;;;6.12;87.27
48095;BME280;33874;52.070;-0.516;2023-04-15T05:05:27;100976.36;;;6.12;87.28
48095;BME280;33874;52.070;-0.516;2023-04-15T05:07:55;100982.98;;;6.12;87.18
48095;BME280;33874;52.070;-0.516;2023-04-15T05:10:23;100985.76;;;6.12;87.35
48095;BME280;33874;52.070;-0.516;2023-04-15T05:12:51;100989.43;;;6.12;87.45
48095;BME280;33874;52.070;-0.516;2023-04-15T05:15:19;100993.45;;;6.12;87.18
48095;BME280;33874;52.070;-0.516;2023-04-15T05:17:47;100995.30;;;6.13;87.25
48095;BME280;33874;52.070;-0.516;2023-04-15T05:20:15;101003.77;;;6.15;87.38
48095;BME280;33874;52.070;-0.516;2023-04-15T05:22:43;101003.50;;;6.16;87.38
48095;BME280;33874;52.070;-0.516;2023-04-15T05:25:11;101003.93;;;6.18;87.29
48095;BME280;33874;52.070;-0.516;2023-04-15T05:27:43;101011.95;;;6.18;87.23
48095;BME280;33874;52.070;-0.516;2023-04-15T05:30:11;101016.70;;;6.20;87.49
48095;BME280;33874;52.070;-0.516;2023-04-15T05:32:40;101025.18;;;6.21;87.39
48095;BME280;33874;52.070;-0.516;2023-04-15T05:35:08;101034.53;;;6.22;87.56
48095;BME280;33874;52.070;-0.516;2023-04-15T05:37:36;101043.34;;;6.24;87.41
48095;BME280;33874;52.070;-0.516;2023-04-15T05:40:05;101053.32;;;6.23;87.53
48095;BME280;33874;52.070;-0.516;2023-04-15T05:42:33;101059.41;;;6.23;87.49
48095;BME280;33874;52.070;-0.516;2023-04-15T05:45:01;101068.25;;;6.22;87.66
48095;BME280;33874;52.070;-0.516;2023-04-15T05:47:32;101076.41;;;6.22;87.71
48095;BME280;33874;52.070;-0.516;2023-04-15T05:50:00;101083.36;;;6.23;87.63
48095;BME280;33874;52.070;-0.516;2023-04-15T05:52:28;101089.67;;;6.22;87.78
48095;BME280;33874;52.070;-0.516;2023-04-15T05:54:56;101094.55;;;6.22;87.80
48095;BME280;33874;52.070;-0.516;2023-04-15T05:57:24;101102.54;;;6.23;87.94
48095;BME280;33874;52.070;-0.516;2023-04-15T05:59:52;101111.41;;;6.23;88.22
48095;BME280;33874;52.070;-0.516;2023-04-15T06:02:21;101116.63;;;6.24;88.28
48095;BME280;33874;52.070;-0.516;2023-04-15T06:04:49;101118.21;;;6.24;87.98
48095;BME280;33874;52.070;-0.516;2023-04-15T06:07:17;101121.37;;;6.23;88.12
48095;BME280;33874;52.070;-0.516;2023-04-15T06:09:47;101127.30;;;6.23;88.15
48095;BME280;33874;52.070;-0.516;2023-04-15T06:12:15;101130.09;;;6.23;88.16
48095;BME280;33874;52.070;-0.516;2023-04-15T06:14:44;101134.14;;;6.23;88.30
48095;BME280;33874;52.070;-0.516;2023-04-15T06:17:12;101136.59;;;6.23;88.44
48095;BME280;33874;52.070;-0.516;2023-04-15T06:19:41;101136.21;;;6.23;88.22
48095;BME280;33874;52.070;-0.516;2023-04-15T06:22:09;101141.04;;;6.24;88.58
48095;BME280;33874;52.070;-0.516;2023-04-15T06:24:37;101148.85;;;6.25;88.18
48095;BME280;33874;52.070;-0.516;2023-04-15T06:27:08;101151.61;;;6.25;88.14
48095;BME280;33874;52.070;-0.516;2023-04-15T06:29:36;101160.95;;;6.27;88.03
48095;BME280;33874;52.070;-0.516;2023-04-15T06:32:04;101168.21;;;6.29;88.28
48095;BME280;33874;52.070;-0.516;2023-04-15T06:34:32;101173.53;;;6.30;88.23
48095;BME280;33874;52.070;-0.516;2023-04-15T06:37:00;101177.83;;;6.31;88.28
48095;BME280;33874;52.070;-0.516;2023-04-15T06:39:29;101184.05;;;6.32;88.33
48095;BME280;33874;52.070;-0.516;2023-04-15T06:41:57;101186.16;;;6.32;88.05
48095;BME280;33874;52.070;-0.516;2023-04-15T06:44:25;101189.92;;;6.33;88.22
48095;BME280;33874;52.070;-0.516;2023-04-15T06:46:53;101190.17;;;6.35;88.11
48095;BME280;33874;52.070;-0.516;2023-04-15T06:49:22;101195.95;;;6.37;88.09
48095;BME280;33874;52.070;-0.516;2023-04-15T06:51:50;101199.05;;;6.41;88.08
48095;BME280;33874;52.070;-0.516;2023-04-15T06:54:18;101199.31;;;6.45;87.93
48095;BME280;33874;52.070;-0.516;2023-04-15T06:56:46;101214.21;;;6.50;87.89
48095;BME280;33874;52.070;-0.516;2023-04-15T06:59:14;101215.23;;;6.54;88.02
48095;BME280;33874;52.070;-0.516;2023-04-15T07:01:42;101214.96;;;6.55;87.73
48095;BME280;33874;52.070;-0.516;2023-04-15T07:04:10;101219.41;;;6.57;87.79
48095;BME280;33874;52.070;-0.516;2023-04-15T07:06:39;101220.73;;;6.61;87.59
48095;BME280;33874;52.070;-0.516;2023-04-15T07:09:08;101223.99;;;6.64;87.51
48095;BME280;33874;52.070;-0.516;2023-04-15T07:11:36;101227.91;;;6.69;87.53
48095;BME280;33874;52.070;-0.516;2023-04-15T07:14:04;101227.75;;;6.74;87.52
48095;BME280;33874;52.070;-0.516;2023-04-15T07:16:33;101237.73;;;6.83;87.10
48095;BME280;33874;52.070;-0.516;2023-04-15T07:19:01;101244.96;;;6.90;87.24
48095;BME280;33874;52.070;-0.516;2023-04-15T07:21:29;101249.39;;;6.97;87.21
48095;BME280;33874;52.070;-0.516;2023-04-15T07:23:57;101250.89;;;7.04;86.90
48095;BME280;33874;52.070;-0.516;2023-04-15T07:26:25;101256.71;;;7.09;86.66
48095;BME280;33874;52.070;-0.516;2023-04-15T07:28:53;101258.65;;;7.17;86.52
48095;BME280;33874;52.070;-0.516;2023-04-15T07:31:21;101263.05;;;7.28;86.57
48095;BME280;33874;52.070;-0.516;2023-04-15T07:33:49;101269.61;;;7.38;86.38
48095;BME280;33874;52.070;-0.516;2023-04-15T07:36:17;101275.20;;;7.43;86.04
48095;BME280;33874;52.070;-0.516;2023-04-15T07:38:45;101283.16;;;7.50;85.87
48095;BME280;33874;52.070;-0.516;2023-04-15T07:41:13;101289.65;;;7.56;85.65
48095;BME280;33874;52.070;-0.516;2023-04-15T07:43:42;101298.04;;;7.61;85.88
48095;BME280;33874;52.070;-0.516;2023-04-15T07:46:11;101301.10;;;7.65;85.62
48095;BME280;33874;52.070;-0.516;2023-04-15T07:48:39;101305.75;;;7.69;85.34
48095;BME280;33874;52.070;-0.516;2023-04-15T07:51:07;101309.38;;;7.72;85.30
48095;BME280;33874;52.070;-0.516;2023-04-15T07:53:37;101317.44;;;7.78;85.09
48095;BME280;33874;52.070;-0.516;2023-04-15T07:56:05;101321.35;;;7.85;85.28
48095;BME280;33874;52.070;-0.516;2023-04-15T07:58:33;101322.64;;;7.92;84.84
48095;BME280;33874;52.070;-0.516;2023-04-15T08:01:01;101323.98;;;7.98;84.81
48095;BME280;33874;52.070;-0.516;2023-04-15T08:03:29;101327.70;;;8.03;84.47
48095;BME280;33874;52.070;-0.516;2023-04-15T08:05:57;101330.54;;;8.10;84.37
48095;BME280;33874;52.070;-0.516;2023-04-15T08:08:26;101335.98;;;8.18;84.07
48095;BME280;33874;52.070;-0.516;2023-04-15T08:10:53;101338.46;;;8.26;84.24
48095;BME280;33874;52.070;-0.516;2023-04-15T08:13:21;101337.09;;;8.36;83.83
48095;BME280;33874;52.070;-0.516;2023-04-15T08:15:52;101345.80;;;8.48;83.97
48095;BME280;33874;52.070;-0.516;2023-04-15T08:18:20;101353.66;;;8.61;84.02
48095;BME280;33874;52.070;-0.516;2023-04-15T08:20:48;101355.66;;;8.71;83.65
48095;BME280;33874;52.070;-0.516;2023-04-15T08:23:16;101357.82;;;8.72;82.94
48095;BME280;33874;52.070;-0.516;2023-04-15T08:25:44;101365.17;;;8.70;82.88
48095;BME280;33874;52.070;-0.516;2023-04-15T08:28:12;101367.39;;;8.65;82.76
48095;BME280;33874;52.070;-0.516;2023-04-15T08:30:40;101369.77;;;8.61;82.72
48095;BME280;33874;52.070;-0.516;2023-04-15T08:33:08;101373.11;;;8.56;82.73
48095;BME280;33874;52.070;-0.516;2023-04-15T08:35:36;101377.74;;;8.50;82.90
48095;BME280;33874;52.070;-0.516;2023-04-15T08:38:04;101378.51;;;8.43;82.89
48095;BME280;33874;52.070;-0.516;2023-04-15T08:40:35;101384.45;;;8.38;82.77
48095;BME280;33874;52.070;-0.516;2023-04-15T08:43:26;101389.02;;;8.35;82.77
48095;BME280;33874;52.070;-0.516;2023-04-15T08:45:55;101393.27;;;8.34;82.94
48095;BME280;33874;52.070;-0.516;2023-04-15T08:48:29;101395.64;;;8.38;83.08
48095;BME280;33874;52.070;-0.516;2023-04-15T08:50:59;101399.05;;;8.59;82.91
48095;BME280;33874;52.070;-0.516;2023-04-15T08:53:28;101402.88;;;8.83;82.97
48095;BME280;33874;52.070;-0.516;2023-04-15T08:55:56;101407.48;;;9.03;82.71
48095;BME280;33874;52.070;-0.516;2023-04-15T08:58:24;101416.04;;;9.14;82.61
48095;BME280;33874;52.070;-0.516;2023-04-15T09:00:52;101419.59;;;9.18;82.42
48095;BME280;33874;52.070;-0.516;2023-04-15T09:03:21;101424.76;;;9.22;82.36
48095;BME280;33874;52.070;-0.516;2023-04-15T09:05:50;101422.11;;;9.20;81.98
48095;BME280;33874;52.070;-0.516;2023-04-15T09:08:19;101425.23;;;9.14;81.90
48095;BME280;33874;52.070;-0.516;2023-04-15T09:10:47;101426.03;;;9.19;81.92
48095;BME280;33874;52.070;-0.516;2023-04-15T09:13:15;101429.50;;;9.32;81.98
48095;BME280;33874;52.070;-0.516;2023-04-15T09:15:44;101436.23;;;9.49;81.43
48095;BME280;33874;52.070;-0.516;2023-04-15T09:18:13;101441.73;;;9.53;80.81
48095;BME280;33874;52.070;-0.516;2023-04-15T09:20:54;101444.59;;;9.57;81.04
48095;BME280;33874;52.070;-0.516;2023-04-15T09:23:22;101446.24;;;9.69;81.12
48095;BME280;33874;52.070;-0.516;2023-04-15T09:25:50;101448.20;;;9.81;80.76
48095;BME280;33874;52.070;-0.516;2023-04-15T09:28:22;101452.23;;;9.89;80.59
48095;BME280;33874;52.070;-0.516;2023-04-15T09:30:59;101460.83;;;9.96;80.50
48095;BME280;33874;52.070;-0.516;2023-04-15T09:33:28;101469.80;;;10.03;80.45
48095;BME280;33874;52.070;-0.516;2023-04-15T09:36:01;101469.98;;;9.98;79.54
48095;BME280;33874;52.070;-0.516;2023-04-15T09:38:32;101478.39;;;9.86;79.47
48095;BME280;33874;52.070;-0.516;2023-04-15T09:41:00;101488.62;;;9.75;79.53
48095;BME280;33874;52.070;-0.516;2023-04-15T09:43:36;101492.60;;;9.69;79.71
48095;BME280;33874;52.070;-0.516;2023-04-15T09:46:04;101495.26;;;9.63;79.55
48095;BME280;33874;52.070;-0.516;2023-04-15T09:48:32;101502.46;;;9.63;79.69
48095;BME280;33874;52.070;-0.516;2023-04-15T09:51:00;101506.13;;;9.63;79.83
48095;BME280;33874;52.070;-0.516;2023-04-15T09:53:28;101515.41;;;9.69;79.93
48095;BME280;33874;52.070;-0.516;2023-04-15T09:55:59;101523.52;;;9.73;79.56
48095;BME280;33874;52.070;-0.516;2023-04-15T09:58:30;101530.61;;;9.75;79.46
48095;BME280;33874;52.070;-0.516;2023-04-15T10:00:58;101534.25;;;9.78;79.64
48095;BME280;33874;52.070;-0.516;2023-04-15T10:03:28;101537.58;;;9.83;79.34
48095;BME280;33874;52.070;-0.516;2023-04-15T10:05:59;101535.41;;;9.81;78.95
48095;BME280;33874;52.070;-0.516;2023-04-15T10:08:28;101544.23;;;9.81;79.14
48095;BME280;33874;52.070;-0.516;2023-04-15T10:10:56;101549.07;;;9.80;79.10
48095;BME280;33874;52.070;-0.516;2023-04-15T10:13:25;101546.56;;;9.75;79.05
48095;BME280;33874;52.070;-0.516;2023-04-15T10:18:25;101555.98;;;9.76;79.62
48095;BME280;33874;52.070;-0.516;2023-04-15T10:20:53;101559.52;;;9.91;79.72
48095;BME280;33874;52.070;-0.516;2023-04-15T10:23:21;101561.34;;;10.13;79.23
48095;BME280;33874;52.070;-0.516;2023-04-15T10:25:50;101561.01;;;10.33;78.64
48095;BME280;33874;52.070;-0.516;2023-04-15T10:28:19;101563.99;;;10.55;78.78
48095;BME280;33874;52.070;-0.516;2023-04-15T10:30:47;101570.45;;;10.78;78.52
48095;BME280;33874;52.070;-0.516;2023-04-15T10:33:17;101571.07;;;10.93;77.89
48095;BME280;33874;52.070;-0.516;2023-04-15T10:35:47;101576.01;;;11.02;77.42
48095;BME280;33874;52.070;-0.516;2023-04-15T10:43:55;101585.47;;;11.39;77.00
48095;BME280;33874;52.070;-0.516;2023-04-15T10:46:37;101582.59;;;11.44;76.46
48095;BME280;33874;52.070;-0.516;2023-04-15T10:49:06;101585.64;;;11.46;76.09
48095;BME280;33874;52.070;-0.516;2023-04-15T10:51:35;101588.30;;;11.60;76.35
48095;BME280;33874;52.070;-0.516;2023-04-15T10:54:05;101592.73;;;11.80;76.26
48095;BME280;33874;52.070;-0.516;2023-04-15T10:56:35;101591.57;;;11.98;75.86
48095;BME280;33874;52.070;-0.516;2023-04-15T10:59:04;101585.67;;;12.17;75.70
48095;BME280;33874;52.070;-0.516;2023-04-15T11:07:11;101588.45;;;13.12;74.63
48095;BME280;33874;52.070;-0.516;2023-04-15T11:09:39;101595.42;;;13.13;73.85
48095;BME280;33874;52.070;-0.516;2023-04-15T11:12:07;101596.29;;;13.07;72.63
48095;BME280;33874;52.070;-0.516;2023-04-15T11:14:39;101600.44;;;13.10;73.28
48095;BME280;33874;52.070;-0.516;2023-04-15T11:17:08;101602.10;;;13.19;72.70
48095;BME280;33874;52.070;-0.516;2023-04-15T11:19:37;101604.64;;;13.30;72.97
48095;BME280;33874;52.070;-0.516;2023-04-15T11:22:09;101603.65;;;13.44;72.84
48095;BME280;33874;52.070;-0.516;2023-04-15T11:24:47;101612.74;;;13.49;72.30
48095;BME280;33874;52.070;-0.516;2023-04-15T11:27:21;101610.16;;;13.67;71.88
48095;BME280;33874;52.070;-0.516;2023-04-15T11:29:50;101611.96;;;13.86;71.68
48095;BME280;33874;52.070;-0.516;2023-04-15T11:32:20;101607.33;;;14.05;70.94
48095;BME280;33874;52.070;-0.516;2023-04-15T11:34:48;101608.08;;;14.10;70.32
48095;BME280;33874;52.070;-0.516;2023-04-15T11:37:15;101610.48;;;14.11;70.02
48095;BME280;33874;52.070;-0.516;2023-04-15T11:39:43;101615.00;;;14.08;68.94
48095;BME280;33874;52.070;-0.516;2023-04-15T11:42:17;101619.77;;;14.00;68.98
48095;BME280;33874;52.070;-0.516;2023-04-15T11:44:45;101627.91;;;13.81;68.70
48095;BME280;33874;52.070;-0.516;2023-04-15T11:47:23;101631.26;;;13.56;68.56
48095;BME280;33874;52.070;-0.516;2023-04-15T11:49:51;101636.30;;;13.38;69.04
48095;BME280;33874;52.070;-0.516;2023-04-15T11:52:19;101635.07;;;13.27;68.58
48095;BME280;33874;52.070;-0.516;2023-04-15T11:54:47;101641.93;;;13.38;69.07
48095;BME280;33874;52.070;-0.516;2023-04-15T11:57:15;101638.98;;;13.56;69.07
48095;BME280;33874;52.070;-0.516;2023-04-15T11:59:44;101642.66;;;13.80;69.09
48095;BME280;33874;52.070;-0.516;2023-04-15T12:02:12;101644.16;;;14.04;68.79
48095;BME280;33874;52.070;-0.516;2023-04-15T12:04:41;101648.80;;;14.28;68.17
48095;BME280;33874;52.070;-0.516;2023-04-15T12:07:09;101650.27;;;14.48;68.28
48095;BME280;33874;52.070;-0.516;2023-04-15T12:09:38;101652.59;;;14.50;67.70
48095;BME280;33874;52.070;-0.516;2023-04-15T12:12:07;101655.34;;;14.38;66.95
48095;BME280;33874;52.070;-0.516;2023-04-15T12:14:34;101662.64;;;14.26;66.93
48095;BME280;33874;52.070;-0.516;2023-04-15T12:17:05;101666.95;;;14.19;66.63
48095;BME280;33874;52.070;-0.516;2023-04-15T12:24:32;101670.13;;;13.64;66.53
48095;BME280;33874;52.070;-0.516;2023-04-15T12:27:01;101670.23;;;13.52;66.93
48095;BME280;33874;52.070;-0.516;2023-04-15T12:29:30;101675.13;;;13.44;66.95
48095;BME280;33874;52.070;-0.516;2023-04-15T12:32:11;101675.96;;;13.43;67.24
48095;BME280;33874;52.070;-0.516;2023-04-15T12:34:40;101675.11;;;13.57;67.68
48095;BME280;33874;52.070;-0.516;2023-04-15T12:37:10;101674.48;;;13.84;67.35
48095;BME280;33874;52.070;-0.516;2023-04-15T12:39:39;101676.95;;;14.17;66.43
48095;BME280;33874;52.070;-0.516;2023-04-15T12:42:08;101674.04;;;14.60;66.50
48095;BME280;33874;52.070;-0.516;2023-04-15T12:44:36;101681.27;;;15.10;66.60
48095;BME280;33874;52.070;-0.516;2023-04-15T12:47:05;101680.86;;;15.54;65.51
48095;BME280;33874;52.070;-0.516;2023-04-15T12:49:33;101683.02;;;15.80;64.96
48095;BME280;33874;52.070;-0.516;2023-04-15T12:52:01;101690.00;;;15.86;64.33
48095;BME280;33874;52.070;-0.516;2023-04-15T12:54:29;101694.09;;;15.70;62.86
48095;BME280;33874;52.070;-0.516;2023-04-15T12:56:58;101698.59;;;15.57;63.59
48095;BME280;33874;52.070;-0.516;2023-04-15T12:59:27;101698.71;;;15.52;63.57
48095;BME280;33874;52.070;-0.516;2023-04-15T13:01:55;101699.98;;;15.34;63.06
48095;BME280;33874;52.070;-0.516;2023-04-15T13:04:23;101704.35;;;15.13;62.67
48095;BME280;33874;52.070;-0.516;2023-04-15T13:06:52;101706.86;;;14.85;62.24
48095;BME280;33874;52.070;-0.516;2023-04-15T13:09:20;101713.81;;;14.58;62.30
48095;BME280;33874;52.070;-0.516;2023-04-15T13:11:48;101708.38;;;14.47;62.77
48095;BME280;33874;52.070;-0.516;2023-04-15T13:14:16;101716.33;;;14.39;62.79